Time;durP1;ratioP1;P1;durP2;ratioP2;P2;SDS_P1;SDS_P2;PMS_P1;PMS_P2;Temp;Humidity;BMP_temperature;BMP_pressure;BME280_temperature;BME280_humidity;BME280_pressure;Samples;Min_cycle;Max_cycle;Signal;HPM_P1;HPM_P2
2023/09/07 00:00:44;;;;;;;0.35;0.35;;;14.70;1.00;;;;;;4990340;28;20039;-78
2023/09/07 00:03:12;;;;;;;0.30;0.30;;;14.70;1.00;;;;;;4998750;28;20049;-78
2023/09/07 00:05:38;;;;;;;0.57;0.57;;;14.70;1.00;;;;;;4992756;28;20034;-79
2023/09/07 00:08:05;;;;;;;0.20;0.20;;;14.70;1.00;;;;;;4991721;28;20038;-80
2023/09/07 00:10:35;;;;;;;2.53;1.30;;;14.60;1.00;;;;;;4990589;28;20030;-80
2023/09/07 00:13:02;;;;;;;1.57;0.70;;;14.60;1.00;;;;;;4991037;28;20026;-80
2023/09/07 00:15:29;;;;;;;4.13;0.55;;;14.50;1.00;;;;;;4994796;28;20038;-79
2023/09/07 00:17:56;;;;;;;0.60;0.55;;;14.50;1.00;;;;;;4992719;28;20047;-79
2023/09/07 00:20:23;;;;;;;0.38;0.25;;;14.40;3.30;;;;;;4993919;28;20045;-79
2023/09/07 00:22:50;;;;;;;0.38;0.38;;;14.40;4.80;;;;;;4969515;28;20047;-79
2023/09/07 00:25:16;;;;;;;1.23;0.60;;;14.30;3.60;;;;;;4991347;28;20050;-79
2023/09/07 00:27:42;;;;;;;1.27;1.10;;;14.40;10.40;;;;;;4993516;28;20034;-79
2023/09/07 00:30:09;;;;;;;1.40;0.77;;;14.50;9.50;;;;;;4990518;28;20026;-79
2023/09/07 00:32:37;;;;;;;0.55;0.52;;;14.60;1.00;;;;;;4991256;28;20034;-79
2023/09/07 00:35:05;;;;;;;0.30;0.30;;;14.70;1.00;;;;;;4979487;28;20046;-79
2023/09/07 00:37:32;;;;;;;1.10;0.43;;;14.80;1.00;;;;;;4990733;28;20049;-79
2023/09/07 00:39:58;;;;;;;0.70;0.55;;;14.70;1.00;;;;;;4989345;28;20452;-79
2023/09/07 00:42:24;;;;;;;0.47;0.47;;;14.60;1.00;;;;;;4990713;28;20403;-79
2023/09/07 00:44:50;;;;;;;0.55;0.43;;;14.50;1.00;;;;;;4978127;28;20050;-79
2023/09/07 00:47:17;;;;;;;0.57;0.55;;;14.50;1.00;;;;;;4990165;28;20061;-79
2023/09/07 00:49:44;;;;;;;2.17;0.98;;;14.40;1.00;;;;;;4990195;28;20427;-79
2023/09/07 00:52:10;;;;;;;0.73;0.68;;;14.40;1.00;;;;;;4961357;28;20042;-79
2023/09/07 00:54:40;;;;;;;4.40;0.40;;;14.40;1.00;;;;;;4975572;28;20046;-79
2023/09/07 00:57:07;;;;;;;0.33;0.33;;;14.50;1.00;;;;;;4968300;28;20043;-79
2023/09/07 00:59:34;;;;;;;0.32;0.30;;;14.60;1.00;;;;;;4988037;28;20627;-79
2023/09/07 01:02:00;;;;;;;0.20;0.20;;;14.70;1.00;;;;;;4982181;28;20400;-78
2023/09/07 01:04:26;;;;;;;0.22;0.22;;;14.70;1.00;;;;;;4966452;28;20042;-79
2023/09/07 01:06:59;;;;;;;1.27;1.15;;;14.70;1.00;;;;;;4990056;28;20061;-79
2023/09/07 01:09:28;;;;;;;0.20;0.20;;;14.70;1.00;;;;;;4967075;28;20411;-79
2023/09/07 01:11:54;;;;;;;0.32;0.30;;;14.60;1.00;;;;;;4964363;28;20045;-79
2023/09/07 01:14:21;;;;;;;0.60;0.52;;;14.60;1.00;;;;;;4991826;28;20555;-79
2023/09/07 01:16:48;;;;;;;1.27;0.68;;;14.60;1.00;;;;;;4990961;28;20057;-79
2023/09/07 01:19:14;;;;;;;1.63;0.88;;;14.50;1.00;;;;;;4989037;28;20453;-79
2023/09/07 01:21:41;;;;;;;0.65;0.65;;;14.50;1.00;;;;;;4988148;28;20039;-79
2023/09/07 01:24:12;;;;;;;8.27;1.27;;;14.40;1.00;;;;;;4988890;28;20434;-78
2023/09/07 01:26:42;;;;;;;1.25;0.45;;;14.40;1.00;;;;;;4988050;28;20049;-79
2023/09/07 01:29:09;;;;;;;0.43;0.20;;;14.30;1.00;;;;;;4967670;28;20049;-79
2023/09/07 01:31:37;;;;;;;1.10;0.82;;;14.20;1.00;;;;;;4987312;28;20071;-79
2023/09/07 01:34:06;;;;;;;2.20;0.47;;;14.30;1.00;;;;;;4964945;28;20473;-79
2023/09/07 01:36:32;;;;;;;1.27;0.85;;;14.30;1.00;;;;;;4987942;28;20050;-79
2023/09/07 01:38:59;;;;;;;0.32;0.30;;;14.20;1.00;;;;;;4961766;28;20046;-79
2023/09/07 01:41:25;;;;;;;0.30;0.30;;;14.10;1.00;;;;;;4988920;28;20041;-79
2023/09/07 01:43:51;;;;;;;0.65;0.57;;;14.10;1.00;;;;;;4990291;28;20061;-78
2023/09/07 01:46:19;;;;;;;1.48;0.88;;;14.00;1.00;;;;;;4969952;28;20039;-79
2023/09/07 01:48:45;;;;;;;1.58;1.20;;;14.00;6.20;;;;;;4990232;28;20030;-79
2023/09/07 01:51:12;;;;;;;0.40;0.38;;;14.00;13.00;;;;;;4972116;28;20042;-78
2023/09/07 01:53:38;;;;;;;0.98;0.90;;;14.10;11.20;;;;;;4989996;28;20035;-79
2023/09/07 01:56:04;;;;;;;1.48;0.45;;;14.10;1.00;;;;;;4986823;28;20026;-79
2023/09/07 01:58:31;;;;;;;0.68;0.52;;;14.00;1.00;;;;;;4967211;28;20494;-79
2023/09/07 02:00:58;;;;;;;0.75;0.75;;;14.10;1.00;;;;;;4988877;28;20034;-79
2023/09/07 02:03:25;;;;;;;0.10;0.10;;;14.10;1.00;;;;;;4987944;28;20031;-79
2023/09/07 02:05:55;;;;;;;0.75;0.47;;;14.00;1.00;;;;;;4972652;28;20047;-79
2023/09/07 02:08:21;;;;;;;5.43;1.25;;;14.00;4.80;;;;;;4988768;28;20384;-79
2023/09/07 02:10:47;;;;;;;0.50;0.50;;;13.90;13.00;;;;;;4990189;28;20372;-79
2023/09/07 02:13:14;;;;;;;1.15;1.02;;;14.00;14.90;;;;;;4985975;28;20038;-79
2023/09/07 02:15:40;;;;;;;0.85;0.77;;;14.00;7.30;;;;;;4988731;28;20046;-79
2023/09/07 02:18:07;;;;;;;1.85;0.95;;;13.90;1.00;;;;;;4972863;28;20038;-79
2023/09/07 02:20:33;;;;;;;0.45;0.45;;;13.80;1.00;;;;;;4988605;28;20460;-79
2023/09/07 02:23:00;;;;;;;0.70;0.60;;;13.70;13.10;;;;;;4987190;28;20057;-79
2023/09/07 02:25:27;;;;;;;1.20;0.60;;;13.70;23.90;;;;;;4991395;28;20059;-79
2023/09/07 02:27:53;;;;;;;2.05;1.00;;;13.70;28.90;;;;;;4998677;28;20054;-79
2023/09/07 02:30:20;;;;;;;2.10;1.05;;;13.70;23.30;;;;;;4995514;28;20399;-78
2023/09/07 02:32:46;;;;;;;0.50;0.50;;;13.60;20.90;;;;;;4995289;28;20043;-79
2023/09/07 02:35:12;;;;;;;0.77;0.77;;;13.60;27.90;;;;;;4994781;28;20042;-78
2023/09/07 02:37:40;;;;;;;0.55;0.50;;;13.50;40.00;;;;;;4993972;28;20038;-78
2023/09/07 02:40:08;;;;;;;0.40;0.40;;;13.60;50.20;;;;;;4968669;28;20046;-79
2023/09/07 02:42:34;;;;;;;0.68;0.68;;;13.60;63.40;;;;;;4976641;28;20495;-79
2023/09/07 02:45:00;;;;;;;0.63;0.55;;;13.70;51.10;;;;;;4995689;28;20042;-79
2023/09/07 02:47:27;;;;;;;0.10;0.10;;;13.70;38.70;;;;;;4983010;28;20050;-78
2023/09/07 02:49:53;;;;;;;0.55;0.55;;;13.60;36.00;;;;;;4994040;28;20038;-79
2023/09/07 02:52:19;;;;;;;0.43;0.43;;;13.50;43.60;;;;;;4996060;28;20041;-79
2023/09/07 02:54:45;;;;;;;0.38;0.30;;;13.40;55.20;;;;;;4975957;28;20053;-79
2023/09/07 02:57:12;;;;;;;1.35;1.25;;;13.50;66.40;;;;;;4972047;28;20045;-79
2023/09/07 02:59:39;;;;;;;0.43;0.40;;;13.40;46.10;;;;;;4978453;28;20119;-79
2023/09/07 03:02:07;;;;;;;2.95;0.40;;;13.40;55.20;;;;;;4992007;28;20038;-78
2023/09/07 03:04:33;;;;;;;1.25;0.63;;;13.40;42.90;;;;;;4979022;28;20051;-79
2023/09/07 03:07:01;;;;;;;2.35;1.20;;;13.40;30.60;;;;;;4996141;28;20033;-79
2023/09/07 03:09:27;;;;;;;0.63;0.57;;;13.30;31.30;;;;;;4977734;28;20046;-79
2023/09/07 03:11:54;;;;;;;0.60;0.60;;;13.20;55.00;;;;;;4977750;28;20039;-79
2023/09/07 03:14:20;;;;;;;0.90;0.77;;;13.20;60.50;;;;;;4992323;28;20042;-79
2023/09/07 03:16:50;;;;;;;0.20;0.20;;;13.30;63.70;;;;;;4982717;28;20043;-78
2023/09/07 03:19:16;;;;;;;0.55;0.43;;;13.20;89.80;;;;;;4966101;28;20373;-78
2023/09/07 03:21:43;;;;;;;1.85;0.85;;;13.30;99.90;;;;;;4970705;28;20046;-79
2023/09/07 03:24:09;;;;;;;1.33;1.02;;;13.30;99.90;;;;;;4993778;28;20480;-78
2023/09/07 03:26:35;;;;;;;1.98;0.85;;;13.40;99.90;;;;;;4971808;28;20039;-79
2023/09/07 03:29:03;;;;;;;1.45;1.15;;;13.50;99.90;;;;;;4979872;28;20050;-79
2023/09/07 03:31:30;;;;;;;2.40;1.38;;;13.50;99.90;;;;;;4983714;28;20460;-79
2023/09/07 03:33:56;;;;;;;0.40;0.40;;;13.60;99.90;;;;;;4993515;28;20057;-79
2023/09/07 03:36:23;;;;;;;0.95;0.93;;;13.70;99.90;;;;;;4995713;28;20030;-79
2023/09/07 03:38:49;;;;;;;1.98;1.13;;;13.80;99.90;;;;;;4983313;28;20472;-79
2023/09/07 03:41:15;;;;;;;0.47;0.38;;;13.80;99.90;;;;;;4993051;28;20046;-79
2023/09/07 03:43:42;;;;;;;3.17;1.05;;;13.70;98.40;;;;;;4981117;28;20046;-79
2023/09/07 03:46:08;;;;;;;1.58;0.82;;;13.60;72.40;;;;;;4974827;28;20050;-79
2023/09/07 03:48:35;;;;;;;0.88;0.85;;;13.60;88.80;;;;;;4960879;28;20488;-78
2023/09/07 03:51:06;;;;;;;1.52;0.68;;;13.50;93.00;;;;;;4992353;28;20034;-78
2023/09/07 03:53:32;;;;;;;1.75;0.45;;;13.60;96.90;;;;;;4976351;28;20504;-78
2023/09/07 03:55:58;;;;;;;0.80;0.60;;;13.60;87.90;;;;;;4989158;28;20054;-77
2023/09/07 03:58:24;;;;;;;1.15;1.05;;;13.60;70.10;;;;;;4969207;28;20472;-77
2023/09/07 04:00:51;;;;;;;0.65;0.50;;;13.60;59.10;;;;;;4992901;28;20094;-78
2023/09/07 04:03:17;;;;;;;0.57;0.47;;;13.50;58.70;;;;;;4968243;28;20042;-78
2023/09/07 04:05:43;;;;;;;1.17;0.85;;;13.40;70.70;;;;;;4989877;28;20055;-78
2023/09/07 04:08:10;;;;;;;1.67;1.00;;;13.30;88.80;;;;;;4989022;28;20026;-74
2023/09/07 04:10:38;;;;;;;0.32;0.32;;;13.30;99.50;;;;;;4990490;28;20035;-75
2023/09/07 04:13:04;;;;;;;1.98;1.38;;;13.20;96.60;;;;;;4972615;28;20049;-75
2023/09/07 04:15:31;;;;;;;0.25;0.25;;;13.10;99.90;;;;;;4992057;28;20057;-75
2023/09/07 04:17:57;;;;;;;0.73;0.73;;;13.00;99.90;;;;;;4980797;28;20396;-76
2023/09/07 04:20:24;;;;;;;0.40;0.40;;;13.00;99.90;;;;;;4991558;28;20066;-75
2023/09/07 04:22:50;;;;;;;0.40;0.32;;;12.90;99.90;;;;;;4990240;28;20053;-75
2023/09/07 04:25:18;;;;;;;0.70;0.70;;;12.90;99.90;;;;;;4962729;28;20062;-74
2023/09/07 04:27:44;;;;;;;0.40;0.40;;;12.90;99.90;;;;;;4973055;28;20065;-75
2023/09/07 04:30:10;;;;;;;0.50;0.40;;;12.90;99.90;;;;;;4989049;28;20030;-74
2023/09/07 04:32:37;;;;;;;0.30;0.30;;;13.00;99.90;;;;;;4990682;28;20045;-75
2023/09/07 04:35:04;;;;;;;0.38;0.38;;;12.90;99.90;;;;;;4990725;28;20061;-75
2023/09/07 04:37:31;;;;;;;0.73;0.73;;;12.90;99.90;;;;;;4991132;28;20050;-75
2023/09/07 04:39:57;;;;;;;0.30;0.30;;;12.80;99.90;;;;;;4991328;28;20101;-76
2023/09/07 04:42:24;;;;;;;3.08;1.20;;;12.80;99.90;;;;;;4974303;28;20046;-74
2023/09/07 04:44:50;;;;;;;0.93;0.85;;;12.70;99.90;;;;;;4991773;28;20049;-75
2023/09/07 04:47:17;;;;;;;0.70;0.52;;;12.60;99.90;;;;;;4973840;28;20041;-75
2023/09/07 04:49:49;;;;;;;2.35;0.95;;;12.60;99.90;;;;;;4967562;28;20449;-75
2023/09/07 04:52:16;;;;;;;0.80;0.80;;;12.60;99.90;;;;;;4987747;28;20615;-75
2023/09/07 04:54:44;;;;;;;0.65;0.52;;;12.70;99.90;;;;;;4971743;28;20364;-75
2023/09/07 04:57:10;;;;;;;0.75;0.47;;;12.80;99.90;;;;;;4992024;28;20034;-75
2023/09/07 04:59:37;;;;;;;0.45;0.40;;;12.80;99.90;;;;;;4986052;28;20046;-75
2023/09/07 05:02:03;;;;;;;1.23;1.15;;;12.80;99.90;;;;;;4970628;28;20037;-75
2023/09/07 05:04:30;;;;;;;1.38;0.68;;;12.90;99.90;;;;;;4988089;28;20051;-75
2023/09/07 05:06:57;;;;;;;1.27;0.95;;;12.80;99.90;;;;;;4987557;28;20034;-76
2023/09/07 05:09:25;;;;;;;0.30;0.30;;;12.80;99.90;;;;;;4988950;28;20479;-75
2023/09/07 05:11:52;;;;;;;2.50;0.60;;;12.80;99.90;;;;;;4969911;28;20403;-74
2023/09/07 05:14:18;;;;;;;0.63;0.63;;;12.90;99.90;;;;;;4990776;28;20037;-75
2023/09/07 05:16:44;;;;;;;1.08;0.75;;;13.00;99.90;;;;;;4970024;28;20049;-74
2023/09/07 05:19:11;;;;;;;0.50;0.50;;;13.00;99.90;;;;;;4970950;28;20043;-75
2023/09/07 05:21:37;;;;;;;0.85;0.57;;;13.00;99.90;;;;;;4957648;28;20050;-74
2023/09/07 05:24:03;;;;;;;0.90;0.90;;;13.10;99.90;;;;;;4988729;28;20050;-75
2023/09/07 05:26:30;;;;;;;1.20;1.10;;;13.20;99.90;;;;;;4980544;28;20050;-75
2023/09/07 05:28:56;;;;;;;0.60;0.60;;;13.20;99.90;;;;;;4990431;28;20045;-75
2023/09/07 05:31:23;;;;;;;2.17;1.10;;;13.30;99.00;;;;;;4989365;28;20034;-75
2023/09/07 05:33:49;;;;;;;2.30;0.90;;;13.40;83.80;;;;;;4965695;28;20042;-74
2023/09/07 05:36:15;;;;;;;1.35;1.25;;;14.20;99.90;;;;;;4973152;28;20069;-74
2023/09/07 05:38:41;;;;;;;1.85;0.80;;;15.30;1.00;;;;;;4988962;28;20045;-74
2023/09/07 05:41:07;;;;;;;1.90;1.02;;;16.40;99.90;;;;;;4988920;28;20038;-74
2023/09/07 05:43:34;;;;;;;0.40;0.40;;;17.60;60.70;;;;;;4989214;28;20046;-74
2023/09/07 05:46:00;;;;;;;0.65;0.43;;;18.40;1.00;;;;;;4968957;28;20058;-74
2023/09/07 05:48:26;;;;;;;1.38;0.98;;;18.70;1.00;;;;;;4988763;28;20380;-75
2023/09/07 05:50:53;;;;;;;0.70;0.60;;;18.70;1.00;;;;;;4966266;28;20045;-74
2023/09/07 05:53:20;;;;;;;0.70;0.68;;;19.00;99.90;;;;;;4972069;28;20038;-80
2023/09/07 05:55:47;;;;;;;0.52;0.52;;;19.30;99.90;;;;;;4963734;28;20054;-76
2023/09/07 05:58:14;;;;;;;1.23;0.98;;;19.50;99.90;;;;;;4978085;28;20138;-78
2023/09/07 06:00:43;;;;;;;;;;;19.60;99.90;;;;;;4983134;28;20050;-77
2023/09/07 06:03:09;;;;;;;3.60;1.33;;;20.00;99.90;;;;;;4987257;28;19920;-78
2023/09/07 06:05:36;;;;;;;3.17;1.40;;;20.70;99.90;;;;;;4971358;28;20045;-77
2023/09/07 06:08:04;;;;;;;0.52;0.52;;;21.20;99.90;;;;;;4993159;28;20383;-78
2023/09/07 06:10:30;;;;;;;1.15;1.05;;;21.40;99.90;;;;;;4988970;28;20041;-78
2023/09/07 06:12:58;;;;;;;0.30;0.30;;;22.00;99.90;;;;;;4971624;28;20038;-80
2023/09/07 06:15:27;;;;;;;0.50;0.50;;;21.70;99.90;;;;;;4959535;28;20053;-78
2023/09/07 06:17:54;;;;;;;1.63;1.05;;;21.20;99.90;;;;;;4969914;28;20049;-78
2023/09/07 06:20:20;;;;;;;0.45;0.45;;;21.10;99.90;;;;;;4969722;28;20039;-78
2023/09/07 06:22:47;;;;;;;2.15;1.73;;;20.70;99.90;;;;;;4963905;28;20055;-77
2023/09/07 06:25:13;;;;;;;1.92;1.42;;;20.50;99.90;;;;;;4984840;28;20051;-78
2023/09/07 06:27:40;;;;;;;2.25;1.50;;;20.60;99.90;;;;;;4980155;28;20412;-77
2023/09/07 06:30:08;;;;;;;0.60;0.60;;;21.30;99.90;;;;;;4983272;28;20050;-76
2023/09/07 06:32:35;;;;;;;1.27;0.30;;;21.80;99.90;;;;;;4966528;28;20047;-77
2023/09/07 06:35:02;;;;;;;0.65;0.57;;;21.60;99.90;;;;;;4974533;28;20042;-79
2023/09/07 06:37:29;;;;;;;0.50;0.50;;;21.10;99.90;;;;;;4974240;28;20039;-77
2023/09/07 06:39:55;;;;;;;0.90;0.40;;;20.90;99.90;;;;;;4982861;28;20107;-77
2023/09/07 06:42:22;;;;;;;0.52;0.52;;;20.50;99.90;;;;;;4987344;28;20043;-76
2023/09/07 06:44:55;;;;;;;0.20;0.20;;;19.90;99.90;;;;;;4990522;28;20046;-77
2023/09/07 06:47:21;;;;;;;0.82;0.82;;;20.00;99.90;;;;;;4985035;28;20598;-77
2023/09/07 06:49:48;;;;;;;2.55;1.08;;;20.30;99.90;;;;;;4988354;28;20030;-77
2023/09/07 06:52:15;;;;;;;1.20;1.10;;;20.50;99.90;;;;;;4981743;28;20072;-77
2023/09/07 06:54:41;;;;;;;0.90;0.47;;;20.70;99.90;;;;;;4969154;28;20042;-77
2023/09/07 06:57:10;;;;;;;0.57;0.57;;;20.80;99.90;;;;;;4952657;28;20396;-78
2023/09/07 06:59:36;;;;;;;0.40;0.40;;;20.60;99.90;;;;;;4998034;28;20046;-77
2023/09/07 07:02:04;;;;;;;1.13;1.08;;;20.30;99.90;;;;;;4972726;28;20053;-79
2023/09/07 07:04:32;;;;;;;0.32;0.32;;;20.40;99.90;;;;;;4973275;28;20054;-81
2023/09/07 07:06:58;;;;;;;0.68;0.43;;;20.50;99.90;;;;;;4988068;28;20046;-80
2023/09/07 07:09:24;;;;;;;0.30;0.30;;;20.50;99.90;;;;;;4984829;28;20042;-80
2023/09/07 07:11:50;;;;;;;0.30;0.30;;;20.70;99.90;;;;;;4966492;28;20042;-80
2023/09/07 07:14:17;;;;;;;0.63;0.38;;;20.80;99.90;;;;;;4987140;28;20042;-80
2023/09/07 07:16:44;;;;;;;0.70;0.28;;;21.10;99.90;;;;;;4961510;28;20054;-81
2023/09/07 07:19:10;;;;;;;0.63;0.40;;;21.50;99.90;;;;;;4991709;28;20053;-81
2023/09/07 07:21:36;;;;;;;3.28;1.45;;;21.90;99.90;;;;;;4967662;28;20062;-80
2023/09/07 07:24:07;;;;;;;1.10;1.00;;;21.90;99.90;;;;;;4989440;28;20387;-80
2023/09/07 07:26:33;;;;;;;1.60;0.85;;;21.80;99.90;;;;;;4993136;28;20057;-81
2023/09/07 07:29:01;;;;;;;0.93;0.38;;;21.40;99.90;;;;;;4975724;28;20042;-80
2023/09/07 07:31:27;;;;;;;0.30;0.30;;;21.40;99.90;;;;;;4990514;28;20042;-81
2023/09/07 07:33:54;;;;;;;0.20;0.20;;;21.60;99.90;;;;;;4996394;28;20034;-80
2023/09/07 07:36:20;;;;;;;1.25;0.75;;;22.30;99.90;;;;;;4976732;28;20487;-81
2023/09/07 07:38:47;;;;;;;0.60;0.60;;;22.50;99.90;;;;;;4955156;28;20399;-80
2023/09/07 07:41:14;;;;;;;0.45;0.45;;;23.10;99.90;;;;;;4970699;28;20046;-81
2023/09/07 07:43:40;;;;;;;0.30;0.30;;;23.50;99.90;;;;;;4970938;28;20042;-81
2023/09/07 07:46:08;;;;;;;1.23;0.75;;;23.30;99.90;;;;;;4992286;28;20042;-81
2023/09/07 07:48:35;;;;;;;0.75;0.75;;;23.00;99.90;;;;;;4966369;28;20050;-81
2023/09/07 07:51:05;;;;;;;0.52;0.52;;;23.10;99.90;;;;;;4960045;28;20043;-81
2023/09/07 07:53:32;;;;;;;0.28;0.25;;;23.30;99.90;;;;;;4971996;28;20062;-81
2023/09/07 07:55:59;;;;;;;15.13;1.83;;;23.50;97.10;;;;;;4992417;28;20034;-81
2023/09/07 07:58:25;;;;;;;0.55;0.55;;;23.20;99.60;;;;;;4975814;28;20130;-82
2023/09/07 08:00:52;;;;;;;1.27;0.75;;;23.30;87.50;;;;;;4973887;28;20031;-80
2023/09/07 08:03:24;;;;;;;0.40;0.40;;;23.50;83.90;;;;;;4973967;28;20034;-81
2023/09/07 08:05:51;;;;;;;1.08;0.63;;;23.80;85.00;;;;;;4989098;28;20491;-80
2023/09/07 08:08:18;;;;;;;0.32;0.32;;;23.90;90.50;;;;;;4987504;28;20393;-81
2023/09/07 08:10:45;;;;;;;1.73;0.95;;;23.60;81.10;;;;;;4974935;28;20057;-81
2023/09/07 08:13:13;;;;;;;0.70;0.70;;;23.80;82.20;;;;;;4961759;28;20485;-81
2023/09/07 08:15:39;;;;;;;0.30;0.30;;;24.50;53.00;;;;;;4961643;28;20053;-80
2023/09/07 08:18:08;;;;;;;0.80;0.47;;;24.80;41.90;;;;;;4983894;28;20054;-81
2023/09/07 08:20:36;;;;;;;0.20;0.20;;;23.80;70.80;;;;;;4973324;28;20095;-81
2023/09/07 08:23:07;;;;;;;0.63;0.57;;;23.50;93.60;;;;;;4970636;28;20054;-81
2023/09/07 08:25:35;;;;;;;0.65;0.32;;;24.40;76.80;;;;;;4988351;28;20061;-81
2023/09/07 08:28:05;;;;;;;2.17;1.33;;;24.50;56.40;;;;;;4979406;28;20046;-80
2023/09/07 08:30:34;;;;;;;0.17;0.17;;;24.10;67.90;;;;;;4988394;28;20037;-80
2023/09/07 08:33:02;;;;;;;0.82;0.82;;;24.20;55.50;;;;;;4989834;28;20038;-81
2023/09/07 08:35:28;;;;;;;0.50;0.50;;;24.30;70.20;;;;;;4990831;28;20559;-81
2023/09/07 08:37:55;;;;;;;0.20;0.20;;;24.30;65.10;;;;;;4989503;28;20035;-81
2023/09/07 08:40:22;;;;;;;1.85;0.85;;;24.30;70.80;;;;;;4991471;28;20026;-80
2023/09/07 08:42:49;;;;;;;1.08;0.45;;;24.90;76.60;;;;;;4991309;28;20034;-81
2023/09/07 08:45:21;;;;;;;0.25;0.25;;;25.20;51.80;;;;;;4973402;28;20030;-80
2023/09/07 08:47:49;;;;;;;0.47;0.47;;;25.70;16.60;;;;;;4965669;28;20050;-81
2023/09/07 08:50:17;;;;;;;0.40;0.40;;;26.10;10.10;;;;;;4987444;28;20122;-81
2023/09/07 08:52:45;;;;;;;0.70;0.60;;;26.00;5.30;;;;;;4990675;28;20081;-81
2023/09/07 08:55:13;;;;;;;0.30;0.30;;;26.10;1.00;;;;;;4979715;28;20046;-81
2023/09/07 08:57:39;;;;;;;8.80;1.00;;;25.80;1.00;;;;;;4993141;28;20046;-81
2023/09/07 09:00:13;;;;;;;2.20;0.50;;;26.10;1.00;;;;;;4990443;28;20464;-81
2023/09/07 09:02:39;;;;;;;1.02;0.70;;;25.80;1.00;;;;;;4990441;28;20026;-80
2023/09/07 09:05:10;;;;;;;1.17;0.40;;;26.30;1.00;;;;;;4990102;28;20046;-83
2023/09/07 09:07:37;;;;;;;1.23;0.40;;;26.90;1.00;;;;;;4967623;28;20057;-81
2023/09/07 09:10:08;;;;;;;2.70;1.08;;;26.60;1.00;;;;;;4989915;28;20046;-81
2023/09/07 09:12:34;;;;;;;2.13;1.15;;;26.40;1.00;;;;;;4991117;28;20181;-80
2023/09/07 09:15:03;;;;;;;0.40;0.40;;;26.30;1.00;;;;;;4992475;28;20030;-80
2023/09/07 09:17:29;;;;;;;1.88;0.55;;;27.00;1.00;;;;;;4990521;28;20049;-80
2023/09/07 09:19:55;;;;;;;0.20;0.20;;;27.10;1.00;;;;;;4988384;28;20057;-81
2023/09/07 09:22:24;;;;;;;0.10;0.10;;;27.50;1.00;;;;;;4988300;28;20062;-80
2023/09/07 09:24:50;;;;;;;0.87;0.50;;;27.60;1.00;;;;;;4989542;28;20034;-80
2023/09/07 09:27:17;;;;;;;1.92;0.80;;;27.50;1.00;;;;;;4987904;28;20065;-80
2023/09/07 09:29:44;;;;;;;0.30;0.30;;;27.30;1.00;;;;;;4987829;28;20034;-79
2023/09/07 09:32:14;;;;;;;0.50;0.50;;;26.90;1.00;;;;;;4990279;28;20027;-79
2023/09/07 09:34:41;;;;;;;;;;;26.80;1.00;;;;;;4989511;28;20038;-79
2023/09/07 09:37:14;;;;;;;0.43;0.43;;;27.30;1.00;;;;;;4990447;28;19910;-79
2023/09/07 09:39:41;;;;;;;0.50;0.32;;;27.50;1.00;;;;;;4990604;28;20373;-80
2023/09/07 09:42:08;;;;;;;0.20;0.20;;;27.50;1.00;;;;;;4992028;28;20030;-79
2023/09/07 09:44:36;;;;;;;0.28;0.28;;;27.40;1.00;;;;;;4991397;28;20034;-80
2023/09/07 09:47:03;;;;;;;2.13;0.82;;;27.60;1.00;;;;;;4989604;28;20049;-80
2023/09/07 09:49:30;;;;;;;0.30;0.30;;;26.90;1.00;;;;;;4989079;28;20041;-79
2023/09/07 09:51:58;;;;;;;0.57;0.57;;;26.70;1.00;;;;;;4990135;28;20035;-79
2023/09/07 09:54:26;;;;;;;1.27;0.70;;;26.40;1.00;;;;;;4987745;28;20034;-80
2023/09/07 09:56:53;;;;;;;0.35;0.35;;;26.20;1.00;;;;;;4991920;28;20054;-79
2023/09/07 09:59:20;;;;;;;1.00;0.77;;;26.30;1.00;;;;;;4990148;28;20046;-79
2023/09/07 10:01:50;;;;;;;0.38;0.38;;;26.40;1.00;;;;;;4990554;28;20039;-79
2023/09/07 10:04:18;;;;;;;4.10;1.25;;;26.90;1.00;;;;;;4989330;28;20037;-78
2023/09/07 10:06:55;;;;;;;2.90;1.27;;;27.10;1.00;;;;;;4994536;28;20057;-79
2023/09/07 10:09:22;;;;;;;0.70;0.70;;;26.90;1.00;;;;;;4993647;28;20046;-81
2023/09/07 10:11:56;;;;;;;1.13;0.45;;;27.00;1.00;;;;;;4995016;28;20376;-80
2023/09/07 10:14:22;;;;;;;0.20;0.20;;;27.00;1.00;;;;;;4991772;28;20034;-80
2023/09/07 10:16:51;;;;;;;0.80;0.70;;;26.90;1.00;;;;;;4990210;28;20046;-82
2023/09/07 10:19:19;;;;;;;0.40;0.40;;;26.80;1.00;;;;;;4986680;28;20053;-80
2023/09/07 10:21:46;;;;;;;0.40;0.40;;;27.00;1.00;;;;;;4989702;28;20049;-80
2023/09/07 10:24:24;;;;;;;0.30;0.30;;;27.30;1.00;;;;;;4991015;28;20054;-80
2023/09/07 10:27:01;;;;;;;0.60;0.50;;;27.30;1.00;;;;;;4990017;28;20042;-84
2023/09/07 10:29:27;;;;;;;0.30;0.30;;;27.20;1.00;;;;;;4986754;28;20049;-80
2023/09/07 10:31:53;;;;;;;0.40;0.40;;;27.10;1.00;;;;;;4988407;28;20352;-81
2023/09/07 10:34:22;;;;;;;0.38;0.38;;;27.10;1.00;;;;;;4970348;28;20045;-82
2023/09/07 10:36:51;;;;;;;0.45;0.45;;;27.20;1.00;;;;;;4989450;28;20034;-79
2023/09/07 10:39:17;;;;;;;0.30;0.30;;;27.00;1.00;;;;;;4987966;28;20046;-80
2023/09/07 10:41:44;;;;;;;1.15;0.90;;;27.00;1.00;;;;;;4990181;28;20038;-84
2023/09/07 10:44:12;;;;;;;0.40;0.40;;;27.00;1.00;;;;;;4989564;28;20038;-80
2023/09/07 10:46:39;;;;;;;0.52;0.38;;;27.00;1.00;;;;;;4988975;28;20356;-81
2023/09/07 10:49:11;;;;;;;0.43;0.43;;;27.10;1.00;;;;;;4988413;28;20034;-85
2023/09/07 10:51:44;;;;;;;0.82;0.82;;;27.10;1.00;;;;;;4993140;28;20045;-86
2023/09/07 10:54:23;;;;;;;0.30;0.30;;;27.30;1.00;;;;;;4993103;28;20464;-88
2023/09/07 10:56:50;;;;;;;0.82;0.60;;;27.40;1.00;;;;;;4993574;28;20034;-80
2023/09/07 10:59:17;;;;;;;0.43;0.43;;;27.40;1.00;;;;;;4991422;28;20057;-80
2023/09/07 11:01:44;;;;;;;0.80;0.55;;;27.40;1.00;;;;;;4992075;28;20042;-81
2023/09/07 11:04:11;;;;;;;0.50;0.50;;;27.10;1.00;;;;;;4993681;28;20081;-81
2023/09/07 11:06:39;;;;;;;1.98;0.80;;;27.00;1.00;;;;;;4994431;28;20491;-80
2023/09/07 11:09:08;;;;;;;0.40;0.40;;;27.30;1.00;;;;;;4992558;28;20038;-82
2023/09/07 11:11:36;;;;;;;0.22;0.22;;;27.40;1.00;;;;;;4992984;28;20061;-80
2023/09/07 11:14:03;;;;;;;0.50;0.50;;;27.40;1.00;;;;;;4991575;28;20038;-81
2023/09/07 11:16:30;;;;;;;7.60;0.75;;;27.50;1.00;;;;;;4991753;28;20045;-85
2023/09/07 11:18:56;;;;;;;2.50;0.82;;;27.60;1.00;;;;;;4991611;28;20444;-80
2023/09/07 11:21:23;;;;;;;0.68;0.68;;;27.60;1.00;;;;;;4991915;28;20035;-80
2023/09/07 11:23:51;;;;;;;0.40;0.40;;;27.70;1.00;;;;;;4994708;28;20053;-80
2023/09/07 11:26:18;;;;;;;0.75;0.47;;;28.00;1.00;;;;;;4990410;28;20479;-81
2023/09/07 11:28:46;;;;;;;0.35;0.35;;;28.10;1.00;;;;;;4990239;28;20046;-80
2023/09/07 11:31:13;;;;;;;0.65;0.40;;;28.30;1.00;;;;;;4991381;28;20357;-80
2023/09/07 11:33:41;;;;;;;0.25;0.22;;;28.60;1.00;;;;;;4993833;28;20030;-83
2023/09/07 11:36:07;;;;;;;0.73;0.65;;;28.60;1.00;;;;;;4994173;28;20476;-81
2023/09/07 11:38:40;;;;;;;0.40;0.40;;;28.40;1.00;;;;;;4991319;28;20034;-80
2023/09/07 11:41:06;;;;;;;0.60;0.60;;;28.10;1.00;;;;;;4991992;28;20030;-81
2023/09/07 11:43:33;;;;;;;0.32;0.30;;;28.40;1.00;;;;;;4989948;28;20265;-80
2023/09/07 11:46:01;;;;;;;0.40;0.40;;;28.40;1.00;;;;;;4992783;28;20472;-80
2023/09/07 11:48:28;;;;;;;0.77;0.77;;;28.60;1.00;;;;;;4995497;28;20042;-79
2023/09/07 11:50:54;;;;;;;0.88;0.50;;;28.60;1.00;;;;;;4998679;28;20030;-80
2023/09/07 11:53:20;;;;;;;2.33;0.82;;;28.80;1.00;;;;;;4995424;28;20049;-80
2023/09/07 11:55:46;;;;;;;0.45;0.43;;;28.90;1.00;;;;;;4991207;28;20038;-84
2023/09/07 11:58:13;;;;;;;0.20;0.20;;;29.00;1.00;;;;;;4990079;28;20037;-83
2023/09/07 12:00:41;;;;;;;0.47;0.43;;;28.90;1.00;;;;;;4991017;28;20030;-86
2023/09/07 12:03:07;;;;;;;0.47;0.47;;;28.80;1.00;;;;;;4973575;28;20034;-87
2023/09/07 12:05:33;;;;;;;0.50;0.50;;;28.90;1.00;;;;;;4992699;28;20054;-82
2023/09/07 12:08:00;;;;;;;1.00;0.60;;;28.90;1.00;;;;;;4995166;28;20037;-90
2023/09/07 12:10:26;;;;;;;0.30;0.30;;;29.00;1.00;;;;;;4993410;28;20337;-88
2023/09/07 12:12:55;;;;;;;0.40;0.40;;;29.10;1.00;;;;;;4966584;28;20031;-88
2023/09/07 12:15:21;;;;;;;0.30;0.30;;;29.30;1.00;;;;;;4992783;28;20265;-83
2023/09/07 12:17:48;;;;;;;0.70;0.70;;;29.40;1.00;;;;;;4988674;28;20039;-87
2023/09/07 12:20:14;;;;;;;0.32;0.32;;;29.30;1.00;;;;;;4992151;28;20038;-86
2023/09/07 12:22:40;;;;;;;0.50;0.25;;;29.20;1.00;;;;;;4992161;28;20483;-86
2023/09/07 12:25:07;;;;;;;0.30;0.20;;;29.30;1.00;;;;;;4993656;28;20042;-86
2023/09/07 12:27:36;;;;;;;0.25;0.25;;;29.30;1.00;;;;;;5000416;28;20026;-88
2023/09/07 12:30:06;;;;;;;0.43;0.32;;;29.40;1.00;;;;;;5015011;28;20041;-87
2023/09/07 12:32:32;;;;;;;0.52;0.50;;;29.50;1.00;;;;;;4998581;28;20042;-81
2023/09/07 12:34:59;;;;;;;0.98;0.52;;;29.40;1.00;;;;;;4994513;28;20037;-91
2023/09/07 12:37:25;;;;;;;0.25;0.25;;;29.40;1.00;;;;;;4993745;28;20060;-91
2023/09/07 12:39:51;;;;;;;0.10;0.10;;;29.50;1.00;;;;;;4999846;28;20038;-89
2023/09/07 12:42:18;;;;;;;0.90;0.35;;;29.70;1.00;;;;;;5005980;28;20030;-82
2023/09/07 12:44:44;;;;;;;0.68;0.40;;;29.70;1.00;;;;;;4998906;28;20057;-90
2023/09/07 12:47:10;;;;;;;0.30;0.30;;;29.80;1.00;;;;;;4992322;28;20384;-90
2023/09/07 12:49:39;;;;;;;0.40;0.32;;;29.70;1.00;;;;;;4990768;28;20030;-90
2023/09/07 12:52:08;;;;;;;3.08;0.75;;;29.70;1.00;;;;;;4990600;28;20461;-82